KSNA/SNA METAR and TAF weather

Enter ICAO airport designator
Station Type Date Time Source
KSNA METAR 2020/09/27 02:53 UTC NOAA

KSNA 270253Z 21006KT 10SM FEW015 21/17 A2986 RMK AO2 SLP111 T02110167 53003


Station Type Date Time Source
KSNA Decoded METAR 2020/09/27 02:53 UTC NOAA

SANTA ANA WAYNE ORANGE CTY, CA, United States (KSNA) 33-41N 117-52W 15M
Sep 26, 2020 - 10:53 PM EDT / 2020.09.27 0253 UTC
Wind: from the SSW (210 degrees) at 7 MPH (6 KT):0
Visibility: 10 mile(s):0
Sky conditions: mostly clear
Temperature: 70.0 F (21.1 C)
Dew Point: 62.1 F (16.7 C)
Relative Humidity: 75%
Pressure (altimeter): 29.86 in. Hg (1011 hPa)
Pressure tendency: 0.01 inches (0.3 hPa) higher than three hours ago
ob: KSNA 270253Z 21006KT 10SM FEW015 21/17 A2986 RMK AO2 SLP111 T02110167 53003
cycle: 3

Station Type Date Time Source
KSNA TAF 2020/09/26 18:42 UTC NOAA

TAF KSNA 261739Z 2618/2718 VRB04KT P6SM SCT012
FM262000 21008KT P6SM SKC
FM270200 VRB04KT P6SM SCT012
FM270700 VRB04KT P6SM OVC010

Example: see airport list